Time;durP1;ratioP1;P1;durP2;ratioP2;P2;SDS_P1;SDS_P2;PMS_P1;PMS_P2;Temp;Humidity;BMP_temperature;BMP_pressure;BME280_temperature;BME280_humidity;BME280_pressure;Samples;Min_cycle;Max_cycle;Signal;HPM_P1;HPM_P2
2021/12/24 00:01:44;;;;;;;162.70;47.58;;;;;;;;;;5024551;28;20104;-39
2021/12/24 00:04:10;;;;;;;171.60;48.13;;;;;;;;;;5029576;28;20026;-39
2021/12/24 00:06:37;;;;;;;152.40;45.17;;;;;;;;;;5039994;28;20025;-38
2021/12/24 00:09:04;;;;;;;156.10;46.55;;;;;;;;;;5045661;28;20057;-38
2021/12/24 00:11:30;;;;;;;166.07;45.78;;;;;;;;;;5034390;28;20100;-38
2021/12/24 00:13:56;;;;;;;142.27;44.72;;;;;;;;;;5042135;28;20483;-38
2021/12/24 00:19:12;;;;;;;141.57;42.38;;;;;;;;;;5037972;28;20120;-39
2021/12/24 00:35:28;;;;;;;104.32;36.58;;;;;;;;;;5052092;28;20044;-40
2021/12/24 00:37:54;;;;;;;95.75;34.25;;;;;;;;;;5045639;28;20092;-41
2021/12/24 00:40:21;;;;;;;105.85;32.75;;;;;;;;;;5033395;28;20141;-41
2021/12/24 00:42:56;;;;;;;103.22;33.63;;;;;;;;;;5033459;28;20023;-39
2021/12/24 00:45:24;;;;;;;92.05;31.77;;;;;;;;;;5039526;28;20029;-39
2021/12/24 00:47:51;;;;;;;81.07;30.25;;;;;;;;;;5035628;28;20029;-40
2021/12/24 00:50:21;;;;;;;74.22;27.80;;;;;;;;;;5037457;28;20432;-40
2021/12/24 00:52:49;;;;;;;74.63;28.60;;;;;;;;;;5044209;28;20431;-41
2021/12/24 00:55:16;;;;;;;89.07;28.17;;;;;;;;;;5036946;28;20106;-41
2021/12/24 00:57:43;;;;;;;81.97;28.50;;;;;;;;;;5037192;28;20048;-39
2021/12/24 01:00:10;;;;;;;80.80;28.13;;;;;;;;;;5031403;28;20083;-39
2021/12/24 01:02:36;;;;;;;76.68;27.77;;;;;;;;;;5033554;28;20029;-39
2021/12/24 01:05:03;;;;;;;67.38;25.90;;;;;;;;;;5046583;28;20036;-39
2021/12/24 01:07:29;;;;;;;76.78;28.88;;;;;;;;;;5056078;28;20025;-40
2021/12/24 01:09:55;;;;;;;72.75;26.30;;;;;;;;;;5040495;28;20574;-41
2021/12/24 01:12:21;;;;;;;75.20;26.35;;;;;;;;;;5032978;28;20033;-43
2021/12/24 01:14:48;;;;;;;68.85;27.02;;;;;;;;;;5043547;28;20060;-40
2021/12/24 01:20:08;;;;;;;71.50;27.20;;;;;;;;;;5000548;28;20436;-41
2021/12/24 01:23:16;;;;;;;68.57;26.08;;;;;;;;;;5032442;28;20036;-40
2021/12/24 01:25:34;;;;;;;63.90;25.08;;;;;;;;;;5039744;28;20064;-39
2021/12/24 01:28:15;;;;;;;56.20;24.88;;;;;;;;;;5033580;28;20539;-39
2021/12/24 01:39:05;;;;;;;62.63;24.13;;;;;;;;;;5043584;28;20039;-39
2021/12/24 01:44:26;;;;;;;60.38;24.85;;;;;;;;;;5004434;28;20064;-40
2021/12/24 01:46:53;;;;;;;58.70;23.45;;;;;;;;;;5034983;28;20483;-40
2021/12/24 01:49:19;;;;;;;49.55;20.95;;;;;;;;;;5048880;28;20612;-40
2021/12/24 01:51:45;;;;;;;51.50;21.40;;;;;;;;;;5035249;28;20024;-41
2021/12/24 01:54:11;;;;;;;56.70;22.63;;;;;;;;;;5033422;28;20036;-39
2021/12/24 01:56:38;;;;;;;62.40;22.85;;;;;;;;;;5032170;28;20557;-39
2021/12/24 01:59:04;;;;;;;54.45;22.75;;;;;;;;;;5042597;28;20071;-38
2021/12/24 02:01:30;;;;;;;53.60;21.38;;;;;;;;;;5026472;28;20057;-39
2021/12/24 02:03:56;;;;;;;57.40;21.92;;;;;;;;;;5022735;28;20065;-39
2021/12/24 02:06:22;;;;;;;52.00;20.10;;;;;;;;;;5028402;28;20057;-39
2021/12/24 02:08:48;;;;;;;66.10;20.80;;;;;;;;;;5026736;28;20574;-39
2021/12/24 02:11:14;;;;;;;50.67;20.98;;;;;;;;;;5029993;28;20072;-39
2021/12/24 02:13:40;;;;;;;49.67;21.40;;;;;;;;;;5024437;28;20018;-39
2021/12/24 02:16:17;;;;;;;60.13;20.40;;;;;;;;;;5023844;28;20461;-40
2021/12/24 02:29:42;;;;;;;47.10;21.60;;;;;;;;;;5019632;28;20168;-39
2021/12/24 02:32:08;;;;;;;60.30;22.98;;;;;;;;;;5023884;28;20049;-41
2021/12/24 02:34:34;;;;;;;49.50;20.08;;;;;;;;;;5023624;28;20022;-40
2021/12/24 02:37:00;;;;;;;52.65;19.50;;;;;;;;;;5025254;28;20064;-39
2021/12/24 02:39:26;;;;;;;49.03;19.92;;;;;;;;;;5024062;28;20033;-40
2021/12/24 02:41:52;;;;;;;48.40;20.58;;;;;;;;;;5019817;28;20036;-39
2021/12/24 02:44:19;;;;;;;53.28;19.77;;;;;;;;;;5020577;28;20029;-41
2021/12/24 02:53:56;;;;;;;40.60;17.23;;;;;;;;;;5028275;28;20407;-40
2021/12/24 02:54:57;;;;;;;36.45;16.75;;;;;;;;;;5026112;28;20486;-39
2021/12/24 02:57:27;;;;;;;43.08;16.95;;;;;;;;;;5027416;28;20543;-40
2021/12/24 03:00:02;;;;;;;42.35;17.95;;;;;;;;;;5018294;28;20022;-41
2021/12/24 03:02:30;;;;;;;45.45;17.77;;;;;;;;;;5018696;28;20180;-40
2021/12/24 03:04:56;;;;;;;36.45;16.45;;;;;;;;;;5020671;28;20109;-41
2021/12/24 03:07:22;;;;;;;46.92;18.15;;;;;;;;;;5027708;28;20056;-39
2021/12/24 03:09:49;;;;;;;47.53;17.67;;;;;;;;;;5018648;28;20066;-42
2021/12/24 03:12:15;;;;;;;43.25;16.77;;;;;;;;;;5024166;28;20106;-40
2021/12/24 03:14:41;;;;;;;44.17;17.05;;;;;;;;;;5020133;28;20026;-40
2021/12/24 03:17:11;;;;;;;53.15;17.20;;;;;;;;;;5020569;28;20018;-39
2021/12/24 03:19:38;;;;;;;46.03;17.80;;;;;;;;;;5024242;28;20035;-39
2021/12/24 03:22:34;;;;;;;62.35;18.70;;;;;;;;;;5021564;28;20492;-41
2021/12/24 03:24:51;;;;;;;48.33;19.50;;;;;;;;;;5019119;28;20037;-41
2021/12/24 03:27:17;;;;;;;54.88;19.13;;;;;;;;;;5017675;28;20109;-41
2021/12/24 03:29:43;;;;;;;47.88;18.70;;;;;;;;;;5020481;28;20061;-41
2021/12/24 03:32:09;;;;;;;50.97;19.38;;;;;;;;;;5021412;28;20054;-41
2021/12/24 03:34:35;;;;;;;44.00;17.85;;;;;;;;;;5020018;28;20018;-39
2021/12/24 03:37:02;;;;;;;50.63;18.85;;;;;;;;;;5018729;28;20068;-40
2021/12/24 03:39:28;;;;;;;47.58;18.17;;;;;;;;;;5024444;28;20059;-41
2021/12/24 03:41:54;;;;;;;43.67;17.92;;;;;;;;;;5024934;28;20060;-41
2021/12/24 03:44:20;;;;;;;49.08;17.40;;;;;;;;;;5026801;28;20149;-39
2021/12/24 03:46:58;;;;;;;42.90;16.63;;;;;;;;;;5017768;28;20030;-41
2021/12/24 03:52:49;;;;;;;35.80;16.67;;;;;;;;;;5000937;28;20044;-39
2021/12/24 03:55:11;;;;;;;41.55;14.48;;;;;;;;;;5027416;28;20096;-39
2021/12/24 03:57:38;;;;;;;39.08;14.65;;;;;;;;;;5023947;28;20057;-40
2021/12/24 04:00:07;;;;;;;46.88;17.92;;;;;;;;;;5014642;28;20037;-39
2021/12/24 04:02:33;;;;;;;38.65;15.60;;;;;;;;;;5024322;28;20025;-41
2021/12/24 04:04:59;;;;;;;42.58;16.05;;;;;;;;;;5017007;28;20087;-39
2021/12/24 04:07:25;;;;;;;41.35;16.35;;;;;;;;;;5030852;28;20029;-39
2021/12/24 04:12:26;;;;;;;31.38;13.82;;;;;;;;;;5034582;28;20025;-39
2021/12/24 04:14:53;;;;;;;36.03;13.98;;;;;;;;;;5033533;28;20408;-42
2021/12/24 04:17:20;;;;;;;32.17;13.68;;;;;;;;;;5033893;28;20056;-39
2021/12/24 04:25:15;;;;;;;37.33;14.00;;;;;;;;;;5033465;28;20063;-40
2021/12/24 04:27:41;;;;;;;37.28;14.80;;;;;;;;;;5033827;28;20588;-41
2021/12/24 04:30:11;;;;;;;40.53;14.20;;;;;;;;;;5033848;28;20040;-40
2021/12/24 04:35:33;;;;;;;33.72;13.20;;;;;;;;;;5036086;28;20034;-40
2021/12/24 04:52:04;;;;;;;28.60;11.93;;;;;;;;;;5034004;28;20032;-39
2021/12/24 05:02:57;;;;;;;35.65;12.70;;;;;;;;;;5018023;28;20076;-39
2021/12/24 05:05:49;;;;;;;29.63;11.75;;;;;;;;;;5042191;28;20025;-40
2021/12/24 05:10:39;;;;;;;27.35;12.65;;;;;;;;;;5034556;28;20033;-41
2021/12/24 05:13:06;;;;;;;32.05;13.00;;;;;;;;;;5037235;28;20043;-40
2021/12/24 05:15:36;;;;;;;25.23;12.48;;;;;;;;;;5034331;28;20029;-40
2021/12/24 05:18:12;;;;;;;28.08;11.05;;;;;;;;;;5017882;28;20092;-39
2021/12/24 05:23:23;;;;;;;23.67;10.27;;;;;;;;;;5020288;28;20041;-39
2021/12/24 05:25:52;;;;;;;23.67;9.90;;;;;;;;;;5009902;28;20029;-39
2021/12/24 05:28:19;;;;;;;20.80;9.13;;;;;;;;;;5015308;28;20121;-40
2021/12/24 05:30:45;;;;;;;19.55;9.60;;;;;;;;;;5022113;28;20060;-39
2021/12/24 05:33:14;;;;;;;22.60;9.80;;;;;;;;;;5027990;28;20021;-38
2021/12/24 05:35:40;;;;;;;25.20;10.50;;;;;;;;;;5027173;28;20044;-39
2021/12/24 05:38:06;;;;;;;23.55;9.90;;;;;;;;;;5028061;28;20115;-39
2021/12/24 05:40:32;;;;;;;19.88;8.30;;;;;;;;;;5026465;28;20049;-39
2021/12/24 05:42:58;;;;;;;21.67;10.02;;;;;;;;;;5009851;28;20033;-39
2021/12/24 05:45:25;;;;;;;22.30;8.93;;;;;;;;;;5021914;28;20107;-39
2021/12/24 05:47:51;;;;;;;21.00;9.77;;;;;;;;;;5014901;28;20075;-39
2021/12/24 05:50:17;;;;;;;20.05;8.80;;;;;;;;;;5019455;28;20045;-38
2021/12/24 05:52:44;;;;;;;25.75;10.25;;;;;;;;;;5012775;28;20045;-39
2021/12/24 05:55:10;;;;;;;20.60;9.38;;;;;;;;;;5018749;28;20072;-39
2021/12/24 05:57:36;;;;;;;22.85;8.88;;;;;;;;;;5015135;28;20036;-39
2021/12/24 06:00:07;;;;;;;24.73;9.07;;;;;;;;;;5018592;28;20034;-39
2021/12/24 06:02:33;;;;;;;22.40;9.27;;;;;;;;;;5011281;28;20049;-40
2021/12/24 06:04:59;;;;;;;20.38;9.32;;;;;;;;;;5020598;28;20523;-39
2021/12/24 06:07:25;;;;;;;23.73;10.05;;;;;;;;;;5011785;28;20113;-39
2021/12/24 06:09:51;;;;;;;21.05;9.07;;;;;;;;;;5015102;28;20053;-39
2021/12/24 06:12:17;;;;;;;21.42;9.48;;;;;;;;;;5024835;28;20049;-39
2021/12/24 06:14:45;;;;;;;27.20;9.93;;;;;;;;;;5041510;28;20121;-39
2021/12/24 06:17:16;;;;;;;25.15;10.18;;;;;;;;;;5051871;28;20021;-42
2021/12/24 06:19:43;;;;;;;23.08;9.45;;;;;;;;;;5036443;28;20488;-39
2021/12/24 06:22:09;;;;;;;24.75;9.75;;;;;;;;;;5030451;28;20045;-41
2021/12/24 06:24:35;;;;;;;26.48;10.05;;;;;;;;;;5037657;28;20444;-41
2021/12/24 06:27:01;;;;;;;25.67;10.88;;;;;;;;;;5031840;28;20044;-41
2021/12/24 06:29:27;;;;;;;27.17;10.23;;;;;;;;;;5028578;28;20030;-40
2021/12/24 06:31:53;;;;;;;27.98;10.75;;;;;;;;;;5032057;28;20591;-39
2021/12/24 06:34:19;;;;;;;31.20;11.25;;;;;;;;;;5039145;28;20079;-42
2021/12/24 06:36:48;;;;;;;28.73;10.38;;;;;;;;;;5039130;28;20506;-39
2021/12/24 06:39:15;;;;;;;28.17;11.18;;;;;;;;;;5042674;28;20049;-39
2021/12/24 06:41:41;;;;;;;25.92;11.63;;;;;;;;;;5031110;28;20061;-38
2021/12/24 06:44:10;;;;;;;30.50;11.68;;;;;;;;;;5030309;28;20072;-38
2021/12/24 06:46:37;;;;;;;27.90;11.25;;;;;;;;;;5045615;28;20040;-40
2021/12/24 06:49:03;;;;;;;29.25;12.25;;;;;;;;;;5027040;28;20026;-41
2021/12/24 06:51:29;;;;;;;29.77;11.50;;;;;;;;;;5030565;28;20022;-41
2021/12/24 06:53:55;;;;;;;33.97;11.93;;;;;;;;;;5031444;28;20040;-42
2021/12/24 06:56:22;;;;;;;29.85;12.85;;;;;;;;;;5030508;28;20442;-39
2021/12/24 06:58:48;;;;;;;30.10;13.45;;;;;;;;;;5032687;28;20057;-42
2021/12/24 07:01:14;;;;;;;29.80;13.30;;;;;;;;;;5048295;28;20067;-38
2021/12/24 07:03:41;;;;;;;31.90;13.35;;;;;;;;;;5026559;28;20034;-42
2021/12/24 07:06:07;;;;;;;33.00;13.35;;;;;;;;;;5022322;28;20018;-39
2021/12/24 07:08:33;;;;;;;35.17;13.85;;;;;;;;;;5025099;28;20087;-38
2021/12/24 07:10:59;;;;;;;39.63;13.20;;;;;;;;;;5016310;28;20108;-40
2021/12/24 07:13:26;;;;;;;38.28;14.68;;;;;;;;;;5024996;28;20052;-40
2021/12/24 07:15:52;;;;;;;33.35;13.38;;;;;;;;;;5023374;28;20479;-39
2021/12/24 07:18:18;;;;;;;34.08;13.70;;;;;;;;;;5024162;28;20105;-42
2021/12/24 07:20:44;;;;;;;38.15;14.27;;;;;;;;;;5022282;28;20034;-42
2021/12/24 07:23:10;;;;;;;33.30;13.93;;;;;;;;;;5033741;28;20460;-43
2021/12/24 07:25:36;;;;;;;28.85;13.23;;;;;;;;;;5028848;28;20102;-40
2021/12/24 07:28:02;;;;;;;33.38;12.75;;;;;;;;;;5034415;28;20037;-39
2021/12/24 07:30:29;;;;;;;29.13;12.75;;;;;;;;;;5029333;28;20025;-42
2021/12/24 07:32:55;;;;;;;32.83;12.90;;;;;;;;;;5024571;28;20022;-42
2021/12/24 07:35:21;;;;;;;32.47;11.68;;;;;;;;;;5020192;28;20116;-37
2021/12/24 07:37:47;;;;;;;31.83;11.73;;;;;;;;;;5023861;28;20484;-37
2021/12/24 07:40:15;;;;;;;29.27;10.95;;;;;;;;;;5029020;28;20065;-37
2021/12/24 07:42:41;;;;;;;31.88;12.65;;;;;;;;;;5030892;28;20087;-37
2021/12/24 07:45:08;;;;;;;28.20;11.27;;;;;;;;;;5039569;28;20534;-35
2021/12/24 07:47:39;;;;;;;31.10;11.35;;;;;;;;;;5044105;28;21802;-38
2021/12/24 07:51:55;;;;;;;31.77;11.85;;;;;;;;;;5031565;28;20037;-36
2021/12/24 07:53:02;;;;;;;37.33;10.77;;;;;;;;;;5031194;28;20130;-39
2021/12/24 07:55:29;;;;;;;31.70;10.60;;;;;;;;;;5030285;28;20029;-35
2021/12/24 07:57:55;;;;;;;29.17;10.38;;;;;;;;;;5029554;28;20104;-36
2021/12/24 08:00:26;;;;;;;23.60;9.90;;;;;;;;;;5029996;28;20123;-36
2021/12/24 08:02:53;;;;;;;32.75;11.05;;;;;;;;;;5030698;28;20471;-37
2021/12/24 08:05:22;;;;;;;28.77;10.05;;;;;;;;;;5030896;28;20033;-36
2021/12/24 08:07:48;;;;;;;25.88;9.32;;;;;;;;;;5029929;28;20075;-35
2021/12/24 08:10:14;;;;;;;22.40;7.88;;;;;;;;;;5033449;28;20089;-35
2021/12/24 08:12:40;;;;;;;21.77;8.65;;;;;;;;;;5034000;28;20053;-36
2021/12/24 08:15:07;;;;;;;17.38;8.73;;;;;;;;;;5033224;28;20080;-37
2021/12/24 08:17:33;;;;;;;19.30;8.35;;;;;;;;;;5033677;28;20021;-36
2021/12/24 08:19:59;;;;;;;17.73;8.27;;;;;;;;;;5033753;28;20223;-37
2021/12/24 08:22:25;;;;;;;21.70;7.90;;;;;;;;;;5030215;28;21799;-37
2021/12/24 08:24:51;;;;;;;19.70;7.90;;;;;;;;;;5037788;28;20033;-37
2021/12/24 08:27:18;;;;;;;18.45;7.72;;;;;;;;;;5040331;28;20092;-36
2021/12/24 08:29:44;;;;;;;20.60;7.53;;;;;;;;;;5033065;28;20025;-38
2021/12/24 08:32:10;;;;;;;18.88;7.50;;;;;;;;;;5031735;28;20538;-36
2021/12/24 08:34:38;;;;;;;19.95;7.60;;;;;;;;;;5032096;28;20045;-37
2021/12/24 08:37:05;;;;;;;19.35;7.35;;;;;;;;;;5032818;28;20017;-36
2021/12/24 08:39:31;;;;;;;10.75;6.30;;;;;;;;;;5033326;28;20040;-35
2021/12/24 08:41:58;;;;;;;21.55;7.35;;;;;;;;;;5026180;28;20493;-36
2021/12/24 08:44:26;;;;;;;14.10;6.70;;;;;;;;;;5031695;28;20396;-36
2021/12/24 08:46:52;;;;;;;14.05;6.50;;;;;;;;;;5030801;28;20032;-37
2021/12/24 08:49:20;;;;;;;15.23;7.20;;;;;;;;;;5031096;28;20029;-36
2021/12/24 08:51:46;;;;;;;12.40;6.40;;;;;;;;;;5032398;28;20028;-37
2021/12/24 08:54:13;;;;;;;13.68;6.85;;;;;;;;;;5032781;28;20148;-36
2021/12/24 08:56:39;;;;;;;14.25;7.28;;;;;;;;;;5017630;28;20024;-36
2021/12/24 08:59:05;;;;;;;13.07;6.05;;;;;;;;;;5032452;28;20100;-36
2021/12/24 09:01:31;;;;;;;12.65;6.63;;;;;;;;;;5035884;28;20056;-37
2021/12/24 09:03:57;;;;;;;17.13;6.47;;;;;;;;;;5030398;28;20045;-37
2021/12/24 09:06:27;;;;;;;10.40;5.78;;;;;;;;;;5031063;28;20057;-36
2021/12/24 09:08:53;;;;;;;11.77;5.95;;;;;;;;;;5033780;28;20387;-35
2021/12/24 09:11:19;;;;;;;11.07;5.93;;;;;;;;;;5034569;28;20030;-35
2021/12/24 09:13:45;;;;;;;11.02;5.85;;;;;;;;;;5035507;28;20469;-36
2021/12/24 09:16:11;;;;;;;9.80;5.55;;;;;;;;;;5032802;28;20487;-35
2021/12/24 09:18:40;;;;;;;10.73;6.03;;;;;;;;;;5032653;28;20075;-37
2021/12/24 09:21:14;;;;;;;9.65;5.40;;;;;;;;;;5033167;28;20113;-36
2021/12/24 09:23:42;;;;;;;9.05;4.85;;;;;;;;;;5018715;28;20022;-35
2021/12/24 09:26:08;;;;;;;9.95;5.43;;;;;;;;;;5043653;28;20621;-35
2021/12/24 09:28:34;;;;;;;9.10;5.57;;;;;;;;;;5029425;28;20032;-35
2021/12/24 09:31:00;;;;;;;13.65;6.75;;;;;;;;;;5032261;28;20087;-36
2021/12/24 09:33:26;;;;;;;13.70;6.80;;;;;;;;;;5033473;28;20743;-36
2021/12/24 09:35:52;;;;;;;12.93;6.22;;;;;;;;;;5032107;28;20072;-38
2021/12/24 09:38:18;;;;;;;14.07;7.25;;;;;;;;;;5031782;28;20016;-36
2021/12/24 09:40:44;;;;;;;14.43;8.05;;;;;;;;;;5037803;28;20132;-35
2021/12/24 09:43:10;;;;;;;18.17;8.18;;;;;;;;;;5031811;28;20113;-35
2021/12/24 09:45:36;;;;;;;16.05;7.22;;;;;;;;;;5039308;28;20547;-36
2021/12/24 09:48:02;;;;;;;14.52;8.02;;;;;;;;;;5028602;28;20045;-36
2021/12/24 09:50:29;;;;;;;15.63;7.15;;;;;;;;;;5028665;28;20523;-35
2021/12/24 09:52:55;;;;;;;11.50;6.32;;;;;;;;;;5029243;28;20053;-34
2021/12/24 09:55:22;;;;;;;15.00;7.10;;;;;;;;;;5027237;28;20098;-34
2021/12/24 09:57:48;;;;;;;13.00;6.65;;;;;;;;;;5028603;28;20105;-35
2021/12/24 10:00:17;;;;;;;9.20;5.47;;;;;;;;;;5034058;28;20041;-35
2021/12/24 10:02:46;;;;;;;11.35;6.22;;;;;;;;;;5030306;28;20029;-33
2021/12/24 10:05:23;;;;;;;14.95;7.30;;;;;;;;;;5028615;28;20088;-35
2021/12/24 10:07:49;;;;;;;16.00;7.95;;;;;;;;;;5029724;28;20025;-34
2021/12/24 10:10:24;;;;;;;13.82;6.50;;;;;;;;;;5031381;28;20613;-35
2021/12/24 10:12:50;;;;;;;10.35;6.10;;;;;;;;;;5033968;28;20478;-35
2021/12/24 10:15:16;;;;;;;9.77;6.47;;;;;;;;;;5033899;28;20021;-34
2021/12/24 10:17:43;;;;;;;13.50;6.38;;;;;;;;;;5036468;28;20350;-35
2021/12/24 10:20:20;;;;;;;11.73;6.65;;;;;;;;;;5032069;28;20435;-35
2021/12/24 10:22:51;;;;;;;11.05;6.25;;;;;;;;;;5031318;28;20033;-35
2021/12/24 10:25:17;;;;;;;9.75;5.70;;;;;;;;;;5031690;28;20501;-34
2021/12/24 10:27:44;;;;;;;9.43;6.10;;;;;;;;;;5023497;28;20514;-35
2021/12/24 10:30:18;;;;;;;8.50;5.45;;;;;;;;;;5025157;28;20036;-35
2021/12/24 10:32:44;;;;;;;11.57;6.27;;;;;;;;;;5028287;28;20551;-35
2021/12/24 10:35:21;;;;;;;10.15;6.18;;;;;;;;;;5026301;28;20261;-34
2021/12/24 10:38:07;;;;;;;11.20;6.40;;;;;;;;;;5028833;28;20044;-36
2021/12/24 10:40:34;;;;;;;8.70;5.72;;;;;;;;;;5031558;28;20025;-35
2021/12/24 10:43:00;;;;;;;11.98;6.90;;;;;;;;;;5032597;28;20033;-35
2021/12/24 10:45:26;;;;;;;10.68;6.25;;;;;;;;;;5032680;28;20120;-35
2021/12/24 10:47:52;;;;;;;10.70;6.68;;;;;;;;;;5029097;28;20025;-35
2021/12/24 10:55:20;;;;;;;9.98;6.20;;;;;;;;;;5032517;28;20029;-34
2021/12/24 10:57:48;;;;;;;9.82;5.90;;;;;;;;;;5031485;28;20021;-34
2021/12/24 11:00:14;;;;;;;9.40;5.15;;;;;;;;;;5026627;28;20040;-33
2021/12/24 11:02:42;;;;;;;7.93;5.38;;;;;;;;;;5029065;28;20033;-36
2021/12/24 11:05:22;;;;;;;8.98;5.25;;;;;;;;;;5043679;28;20031;-36
2021/12/24 11:07:48;;;;;;;9.00;5.55;;;;;;;;;;5035136;28;20025;-35
2021/12/24 11:10:15;;;;;;;7.35;4.93;;;;;;;;;;5032973;28;20021;-37
2021/12/24 11:12:43;;;;;;;9.82;5.43;;;;;;;;;;5029040;28;20026;-35
2021/12/24 11:15:32;;;;;;;9.10;5.68;;;;;;;;;;5034342;28;20026;-36
2021/12/24 11:18:00;;;;;;;8.20;5.57;;;;;;;;;;5020613;28;20037;-36
2021/12/24 11:20:28;;;;;;;12.50;8.13;;;;;;;;;;5031882;28;20480;-34
2021/12/24 11:23:02;;;;;;;9.70;6.03;;;;;;;;;;5033669;28;20057;-37
2021/12/24 11:25:29;;;;;;;10.27;6.15;;;;;;;;;;5036122;28;20033;-36
2021/12/24 11:27:55;;;;;;;11.68;5.30;;;;;;;;;;5034689;28;20372;-34
2021/12/24 11:30:22;;;;;;;10.43;5.75;;;;;;;;;;5034839;28;20047;-35
2021/12/24 11:32:49;;;;;;;8.30;5.28;;;;;;;;;;5030758;28;20030;-35
2021/12/24 11:35:15;;;;;;;13.15;6.15;;;;;;;;;;5014082;28;20044;-35
2021/12/24 11:37:44;;;;;;;9.57;6.60;;;;;;;;;;5038208;28;20123;-36
2021/12/24 11:40:10;;;;;;;10.98;6.00;;;;;;;;;;5034128;28;20476;-36
2021/12/24 11:42:39;;;;;;;11.32;6.47;;;;;;;;;;5027892;28;20044;-36
2021/12/24 11:45:06;;;;;;;13.27;7.55;;;;;;;;;;5033787;28;20488;-36
2021/12/24 11:47:32;;;;;;;16.25;8.02;;;;;;;;;;5030190;28;20029;-37
2021/12/24 11:49:59;;;;;;;9.90;6.35;;;;;;;;;;5027442;28;20534;-36
2021/12/24 11:52:27;;;;;;;9.43;6.35;;;;;;;;;;5030260;28;20033;-37
2021/12/24 11:54:54;;;;;;;12.45;6.93;;;;;;;;;;5031709;28;20386;-36
2021/12/24 11:57:22;;;;;;;12.88;7.10;;;;;;;;;;5033691;28;20056;-36
2021/12/24 11:59:48;;;;;;;11.00;6.88;;;;;;;;;;5035102;28;20087;-35
2021/12/24 12:02:32;;;;;;;11.10;7.20;;;;;;;;;;5038330;28;20029;-38
2021/12/24 12:05:15;;;;;;;16.38;7.75;;;;;;;;;;5039362;28;20033;-36
2021/12/24 12:07:41;;;;;;;12.27;7.32;;;;;;;;;;5025320;28;20038;-35
2021/12/24 12:10:07;;;;;;;12.43;7.10;;;;;;;;;;5030401;28;20160;-36
2021/12/24 12:12:39;;;;;;;13.25;7.22;;;;;;;;;;5032565;28;20025;-35
2021/12/24 12:15:23;;;;;;;10.52;6.78;;;;;;;;;;5031664;28;20018;-36
2021/12/24 12:17:54;;;;;;;10.13;6.60;;;;;;;;;;5025079;28;20022;-37
2021/12/24 12:20:41;;;;;;;10.63;6.55;;;;;;;;;;5032423;28;20026;-37
2021/12/24 12:23:14;;;;;;;11.48;6.82;;;;;;;;;;5028921;28;20025;-37
2021/12/24 12:25:41;;;;;;;12.20;7.20;;;;;;;;;;5024478;28;20025;-37
2021/12/24 12:28:12;;;;;;;13.02;6.50;;;;;;;;;;5020879;28;20025;-37
2021/12/24 12:30:41;;;;;;;12.43;6.63;;;;;;;;;;5023701;28;20026;-36
2021/12/24 12:33:09;;;;;;;10.80;6.63;;;;;;;;;;5035660;28;20026;-36
2021/12/24 12:35:40;;;;;;;11.75;7.05;;;;;;;;;;5040309;28;20017;-36
2021/12/24 12:38:25;;;;;;;16.17;7.72;;;;;;;;;;5032704;28;20021;-36
2021/12/24 12:40:51;;;;;;;11.50;7.35;;;;;;;;;;5032625;28;20036;-36
2021/12/24 12:43:18;;;;;;;15.65;7.05;;;;;;;;;;5032875;28;20547;-37
2021/12/24 12:45:46;;;;;;;15.77;8.15;;;;;;;;;;5032311;28;20037;-35
2021/12/24 12:48:16;;;;;;;14.90;8.38;;;;;;;;;;5023529;28;20025;-36
2021/12/24 12:50:51;;;;;;;21.83;9.50;;;;;;;;;;5026355;28;20065;-36
2021/12/24 12:53:40;;;;;;;16.90;8.32;;;;;;;;;;5027065;28;20034;-37
2021/12/24 12:56:26;;;;;;;15.48;8.63;;;;;;;;;;5031759;28;20412;-37
2021/12/24 12:59:00;;;;;;;15.60;8.63;;;;;;;;;;5031309;28;20033;-36
2021/12/24 13:01:26;;;;;;;17.60;9.43;;;;;;;;;;5031657;28;20415;-36
2021/12/24 13:04:03;;;;;;;14.23;8.65;;;;;;;;;;5035215;28;20040;-37
2021/12/24 13:06:32;;;;;;;16.23;10.13;;;;;;;;;;5031526;28;20475;-36
2021/12/24 13:09:02;;;;;;;15.27;9.85;;;;;;;;;;5031274;28;20061;-36
2021/12/24 13:11:33;;;;;;;16.25;10.05;;;;;;;;;;5036408;28;20104;-36
2021/12/24 13:14:01;;;;;;;23.30;12.13;;;;;;;;;;5024826;28;20089;-37
2021/12/24 13:16:32;;;;;;;20.95;12.82;;;;;;;;;;5024960;28;20018;-36
2021/12/24 13:19:20;;;;;;;23.20;13.25;;;;;;;;;;5026565;28;20033;-37
2021/12/24 13:24:41;;;;;;;23.13;12.43;;;;;;;;;;5038325;28;20047;-37
2021/12/24 13:27:07;;;;;;;25.17;13.73;;;;;;;;;;5047231;28;20030;-36
2021/12/24 13:29:33;;;;;;;19.75;11.45;;;;;;;;;;5030867;28;20057;-37
2021/12/24 13:32:01;;;;;;;23.70;13.07;;;;;;;;;;5027333;28;20049;-36
2021/12/24 13:34:27;;;;;;;18.92;11.20;;;;;;;;;;5048534;28;20021;-36
2021/12/24 13:36:55;;;;;;;18.08;10.88;;;;;;;;;;5043457;28;20025;-36
2021/12/24 13:39:22;;;;;;;16.17;10.52;;;;;;;;;;5030708;28;20025;-37
2021/12/24 13:41:49;;;;;;;14.38;9.18;;;;;;;;;;5029853;28;20060;-37
2021/12/24 13:44:23;;;;;;;16.73;9.93;;;;;;;;;;5030580;28;20061;-37
2021/12/24 13:47:13;;;;;;;16.98;10.20;;;;;;;;;;5031042;28;20021;-37
2021/12/24 13:55:22;;;;;;;12.13;7.93;;;;;;;;;;5025457;28;20079;-37
2021/12/24 13:57:52;;;;;;;31.83;18.23;;;;;;;;;;5032352;28;20029;-37
2021/12/24 14:00:20;;;;;;;13.10;8.25;;;;;;;;;;5034525;28;20071;-36
2021/12/24 14:03:00;;;;;;;13.18;7.93;;;;;;;;;;5030017;28;20045;-36
2021/12/24 14:05:27;;;;;;;16.10;9.20;;;;;;;;;;5030365;28;20060;-37
2021/12/24 14:08:04;;;;;;;20.98;12.75;;;;;;;;;;5032651;28;20465;-37
2021/12/24 14:10:30;;;;;;;22.90;12.73;;;;;;;;;;5029860;28;20041;-37
2021/12/24 14:13:03;;;;;;;28.52;15.48;;;;;;;;;;5031675;28;20539;-37
2021/12/24 14:15:30;;;;;;;18.52;10.63;;;;;;;;;;5037516;28;20024;-37
2021/12/24 14:20:58;;;;;;;14.80;9.00;;;;;;;;;;5034889;28;20029;-37
2021/12/24 14:23:18;;;;;;;14.10;7.93;;;;;;;;;;5036419;28;20116;-38
2021/12/24 14:25:54;;;;;;;16.83;9.18;;;;;;;;;;5045751;28;20448;-37
2021/12/24 14:28:22;;;;;;;19.30;10.25;;;;;;;;;;5014489;28;20439;-36
2021/12/24 14:30:48;;;;;;;20.90;11.57;;;;;;;;;;5027145;28;20045;-35
2021/12/24 14:33:14;;;;;;;26.15;13.48;;;;;;;;;;5031217;28;20025;-35
2021/12/24 14:35:44;;;;;;;23.63;13.02;;;;;;;;;;5031707;28;20064;-35
2021/12/24 14:38:15;;;;;;;27.05;13.23;;;;;;;;;;5032980;28;20022;-36
2021/12/24 14:40:41;;;;;;;27.00;13.82;;;;;;;;;;5033236;28;20056;-38
2021/12/24 14:43:12;;;;;;;30.23;14.90;;;;;;;;;;5035272;28;20057;-38
2021/12/24 14:45:39;;;;;;;30.98;13.88;;;;;;;;;;5033128;28;20558;-38
2021/12/24 14:48:24;;;;;;;31.58;15.25;;;;;;;;;;5032161;28;20389;-38
2021/12/24 14:50:56;;;;;;;35.60;16.27;;;;;;;;;;5027973;28;20191;-38
2021/12/24 14:53:27;;;;;;;29.05;14.07;;;;;;;;;;5032233;28;20042;-38
2021/12/24 14:56:00;;;;;;;38.95;17.38;;;;;;;;;;5031869;28;20029;-36
2021/12/24 14:58:34;;;;;;;42.97;17.50;;;;;;;;;;5028594;28;20021;-38
2021/12/24 15:01:02;;;;;;;40.30;16.95;;;;;;;;;;5033049;28;20078;-41
2021/12/24 15:03:30;;;;;;;40.80;17.80;;;;;;;;;;5042372;28;20068;-38
2021/12/24 15:05:56;;;;;;;41.00;18.25;;;;;;;;;;5034828;28;20045;-39
2021/12/24 15:08:33;;;;;;;42.70;17.38;;;;;;;;;;5042553;28;20528;-42
2021/12/24 15:11:02;;;;;;;40.70;16.08;;;;;;;;;;5027317;28;20025;-39
2021/12/24 15:13:28;;;;;;;40.65;17.23;;;;;;;;;;5030811;28;20025;-41
2021/12/24 15:15:56;;;;;;;42.00;17.05;;;;;;;;;;5033549;28;20067;-39
2021/12/24 15:18:22;;;;;;;35.15;17.08;;;;;;;;;;5031034;28;20037;-38
2021/12/24 15:20:48;;;;;;;45.20;18.88;;;;;;;;;;5029211;28;20451;-39
2021/12/24 15:23:15;;;;;;;49.55;18.88;;;;;;;;;;5039519;28;20653;-40
2021/12/24 15:25:42;;;;;;;46.97;18.75;;;;;;;;;;5041294;28;20079;-40
2021/12/24 15:28:10;;;;;;;54.95;20.25;;;;;;;;;;5030582;28;20036;-40
2021/12/24 15:30:37;;;;;;;56.00;22.52;;;;;;;;;;5030298;28;20453;-40
2021/12/24 15:33:04;;;;;;;37.90;18.17;;;;;;;;;;5029206;28;20032;-39
2021/12/24 15:35:32;;;;;;;42.15;17.92;;;;;;;;;;5029546;28;20033;-40
2021/12/24 15:37:58;;;;;;;44.03;18.83;;;;;;;;;;5029433;28;20067;-42
2021/12/24 15:40:24;;;;;;;44.80;18.15;;;;;;;;;;5017947;28;20475;-40
2021/12/24 15:42:50;;;;;;;46.03;17.05;;;;;;;;;;5035313;28;20136;-40
2021/12/24 15:45:16;;;;;;;44.55;17.92;;;;;;;;;;5029013;28;20029;-40
2021/12/24 15:47:42;;;;;;;41.45;17.77;;;;;;;;;;5035204;28;20052;-42
2021/12/24 15:50:08;;;;;;;40.83;17.23;;;;;;;;;;5032884;28;20163;-41
2021/12/24 15:52:34;;;;;;;45.05;19.00;;;;;;;;;;5032480;28;21571;-40
2021/12/24 15:55:00;;;;;;;45.38;17.65;;;;;;;;;;5033386;28;20061;-40
2021/12/24 15:57:26;;;;;;;45.65;18.10;;;;;;;;;;5031218;28;20109;-40
2021/12/24 15:59:52;;;;;;;47.70;19.88;;;;;;;;;;5028586;28;20373;-40
2021/12/24 16:02:18;;;;;;;46.33;18.83;;;;;;;;;;5029464;28;20040;-40
2021/12/24 16:04:44;;;;;;;50.83;17.45;;;;;;;;;;5028051;28;20034;-42
2021/12/24 16:07:10;;;;;;;43.83;17.80;;;;;;;;;;5034965;28;20108;-39
2021/12/24 16:09:37;;;;;;;55.22;18.02;;;;;;;;;;5033539;28;20037;-40
2021/12/24 16:12:07;;;;;;;41.10;17.15;;;;;;;;;;5035393;28;20029;-38
2021/12/24 16:14:34;;;;;;;40.03;15.35;;;;;;;;;;5021477;28;20056;-40
2021/12/24 16:17:06;;;;;;;36.47;14.63;;;;;;;;;;5025545;28;20021;-40